Time;durP1;ratioP1;P1;durP2;ratioP2;P2;SDS_P1;SDS_P2;PMS_P1;PMS_P2;Temp;Humidity;BMP_temperature;BMP_pressure;BME280_temperature;BME280_humidity;BME280_pressure;Samples;Min_cycle;Max_cycle;Signal;HPM_P1;HPM_P2
2022/09/24 00:00:18;;;;;;;2.33;1.67;;;;;;;-144.22;100.00;60274.75;6280420;28;20596;-46
2022/09/24 00:03:22;;;;;;;2.20;1.80;;;;;;;-144.22;100.00;60274.75;6281409;28;20203;-44
2022/09/24 00:06:25;;;;;;;2.10;1.83;;;;;;;-144.22;100.00;60274.75;6279862;28;20243;-44
2022/09/24 00:09:26;;;;;;;2.80;2.13;;;;;;;-144.22;100.00;60274.75;6280914;28;20235;-44
2022/09/24 00:12:28;;;;;;;1.90;1.70;;;;;;;-144.22;100.00;60274.75;6280066;28;20238;-44
2022/09/24 00:15:34;;;;;;;1.87;1.73;;;;;;;-144.22;100.00;60274.75;6280536;28;20304;-43
2022/09/24 00:18:37;;;;;;;2.30;1.93;;;;;;;-144.22;100.00;60274.75;6280012;28;20305;-44
2022/09/24 00:21:40;;;;;;;2.17;1.90;;;;;;;-144.22;100.00;60274.75;6280077;28;20234;-43
2022/09/24 00:28:02;;;;;;;2.10;1.90;;;;;;;-144.22;100.00;60274.75;6278174;28;20596;-44
2022/09/24 00:31:06;;;;;;;2.43;2.23;;;;;;;-144.22;100.00;60274.75;6279602;28;20230;-44
2022/09/24 00:34:09;;;;;;;4.40;2.30;;;;;;;-144.22;100.00;60274.75;6277747;28;20230;-44
2022/09/24 00:37:11;;;;;;;2.33;2.13;;;;;;;-144.22;100.00;60274.75;6280174;28;20237;-44
2022/09/24 00:40:14;;;;;;;2.37;2.10;;;;;;;-144.22;100.00;60274.75;6280004;28;20229;-44
2022/09/24 00:43:34;;;;;;;2.97;2.30;;;;;;;-144.22;100.00;60274.75;6280456;28;20652;-44
2022/09/24 00:46:40;;;;;;;2.30;2.10;;;;;;;-144.22;100.00;60274.75;6280274;28;20766;-44
2022/09/24 00:49:43;;;;;;;3.07;1.80;;;;;;;-144.22;100.00;60274.75;6280281;28;20702;-44
2022/09/24 00:52:57;;;;;;;2.33;2.10;;;;;;;-144.22;100.00;60274.75;6279301;28;20760;-44
2022/09/24 00:56:02;;;;;;;3.17;2.57;;;;;;;-144.22;100.00;60274.75;6279030;28;20234;-44
2022/09/24 00:59:06;;;;;;;4.50;2.60;;;;;;;-144.22;100.00;60274.75;6279421;28;20241;-44
2022/09/24 01:02:08;;;;;;;3.00;1.93;;;;;;;-144.22;100.00;60274.75;6281081;28;20230;-44
2022/09/24 01:05:10;;;;;;;3.00;2.30;;;;;;;-144.22;100.00;60274.75;6278597;28;20279;-44
2022/09/24 01:08:14;;;;;;;2.50;2.13;;;;;;;-144.22;100.00;60274.75;6279547;28;20222;-44
2022/09/24 01:11:28;;;;;;;2.47;2.00;;;;;;;-144.22;100.00;60274.75;6278035;28;20729;-44
2022/09/24 01:14:51;;;;;;;3.60;2.17;;;;;;;-144.22;100.00;60274.75;6279860;28;20230;-44
2022/09/24 01:17:53;;;;;;;2.40;2.20;;;;;;;-144.22;100.00;60274.75;6278694;28;20237;-43
2022/09/24 01:21:34;;;;;;;4.07;2.10;;;;;;;-144.22;100.00;60274.75;6278903;28;20234;-43
2022/09/24 01:24:53;;;;;;;2.73;1.90;;;;;;;-144.22;100.00;60274.75;6272839;28;20230;-44
2022/09/24 01:28:01;;;;;;;3.27;2.60;;;;;;;-144.22;100.00;60274.75;6277659;28;20230;-44
2022/09/24 01:31:13;;;;;;;2.60;2.30;;;;;;;-144.22;100.00;60274.75;6279914;28;20235;-44
2022/09/24 01:34:21;;;;;;;2.40;2.17;;;;;;;-144.22;100.00;60274.75;6278652;28;20763;-44
2022/09/24 01:37:27;;;;;;;1.87;1.77;;;;;;;-144.22;100.00;60274.75;6278804;28;20237;-45
2022/09/24 01:40:30;;;;;;;1.93;1.60;;;;;;;-144.22;100.00;60274.75;6279496;28;20701;-44
2022/09/24 01:43:33;;;;;;;2.73;2.37;;;;;;;-144.22;100.00;60274.75;6277185;28;20267;-43
2022/09/24 01:46:39;;;;;;;3.30;2.27;;;;;;;-144.22;100.00;60274.75;6278371;28;20222;-44
2022/09/24 01:49:41;;;;;;;3.43;2.27;;;;;;;-144.22;100.00;60274.75;6278019;28;20268;-43
2022/09/24 01:53:07;;;;;;;3.23;2.07;;;;;;;-144.22;100.00;60274.75;6278587;28;20254;-44
2022/09/24 01:56:37;;;;;;;2.80;2.10;;;;;;;-144.22;100.00;60274.75;6277227;28;20284;-44
2022/09/24 01:59:49;;;;;;;5.63;1.90;;;;;;;-144.22;100.00;60274.75;6280313;28;20712;-44
2022/09/24 02:03:06;;;;;;;2.23;1.83;;;;;;;-144.22;100.00;60274.75;6278199;28;20230;-44
2022/09/24 02:06:19;;;;;;;2.67;2.20;;;;;;;-144.22;100.00;60274.75;6278420;28;20340;-44
2022/09/24 02:09:36;;;;;;;2.50;1.80;;;;;;;-144.22;100.00;60274.75;6278303;28;20234;-44
2022/09/24 02:12:42;;;;;;;2.50;2.10;;;;;;;-144.22;100.00;60274.75;6278362;28;20720;-44
2022/09/24 02:15:49;;;;;;;5.23;2.10;;;;;;;-144.22;100.00;60274.75;6277852;28;20269;-43
2022/09/24 02:18:56;;;;;;;2.37;1.97;;;;;;;-144.22;100.00;60274.75;6277924;28;20237;-44
2022/09/24 02:21:58;;;;;;;2.60;1.87;;;;;;;-144.22;100.00;60274.75;6278347;28;20234;-43
2022/09/24 02:25:04;;;;;;;2.07;1.83;;;;;;;-144.22;100.00;60274.75;6278693;28;20712;-44
2022/09/24 02:28:07;;;;;;;1.93;1.73;;;;;;;-144.22;100.00;60274.75;6279233;28;20594;-44
2022/09/24 02:31:26;;;;;;;2.90;1.87;;;;;;;-144.22;100.00;60274.75;6278803;28;20229;-44
2022/09/24 02:34:37;;;;;;;3.50;1.80;;;;;;;-144.22;100.00;60274.75;6277738;28;20729;-44
2022/09/24 02:37:42;;;;;;;2.00;1.80;;;;;;;-144.22;100.00;60274.75;6278603;28;20242;-44
2022/09/24 02:40:44;;;;;;;2.40;2.13;;;;;;;-144.22;100.00;60274.75;6280096;28;20599;-44
2022/09/24 02:43:46;;;;;;;2.67;2.30;;;;;;;-144.22;100.00;60274.75;6277850;28;20234;-43
2022/09/24 02:46:49;;;;;;;3.63;2.40;;;;;;;-144.22;100.00;60274.75;6278107;28;20230;-44
2022/09/24 02:49:51;;;;;;;3.20;2.77;;;;;;;-144.22;100.00;60274.75;6278257;28;20230;-44
2022/09/24 02:52:53;;;;;;;3.60;2.30;;;;;;;-144.22;100.00;60274.75;6280216;28;20222;-44
2022/09/24 02:55:56;;;;;;;2.90;2.23;;;;;;;-144.22;100.00;60274.75;6281507;28;20254;-44
2022/09/24 02:59:00;;;;;;;3.07;2.47;;;;;;;-144.22;100.00;60274.75;6282027;28;20548;-44
2022/09/24 03:02:02;;;;;;;2.87;2.60;;;;;;;-144.22;100.00;60274.75;6281994;28;20284;-43
2022/09/24 03:05:04;;;;;;;2.30;2.10;;;;;;;-144.22;100.00;60274.75;6280328;28;20353;-43
2022/09/24 03:08:06;;;;;;;2.40;2.10;;;;;;;-144.22;100.00;60274.75;6282437;28;20697;-44
2022/09/24 03:11:09;;;;;;;2.57;1.90;;;;;;;-144.22;100.00;60274.75;6281306;28;20234;-44
2022/09/24 03:14:18;;;;;;;2.00;1.80;;;;;;;-144.22;100.00;60274.75;6282521;28;20231;-45
2022/09/24 03:17:20;;;;;;;3.77;2.00;;;;;;;-144.22;100.00;60274.75;6281600;28;20219;-43
2022/09/24 03:20:23;;;;;;;3.27;1.80;;;;;;;-144.22;100.00;60274.75;6281962;28;20229;-43
2022/09/24 03:23:26;;;;;;;2.13;1.60;;;;;;;-144.22;100.00;60274.75;6281055;28;20642;-44
2022/09/24 03:26:28;;;;;;;2.43;1.73;;;;;;;-144.22;100.00;60274.75;6280654;28;20227;-43
2022/09/24 03:32:51;;;;;;;2.43;2.00;;;;;;;-144.22;100.00;60274.75;6279345;28;20231;-43
2022/09/24 03:36:00;;;;;;;1.77;1.47;;;;;;;-144.22;100.00;60274.75;6281247;28;20230;-44
2022/09/24 03:39:02;;;;;;;2.10;1.57;;;;;;;-144.22;100.00;60274.75;6280710;28;20227;-44
2022/09/24 03:42:04;;;;;;;2.13;1.60;;;;;;;-144.22;100.00;60274.75;6279651;28;20222;-43
2022/09/24 03:45:06;;;;;;;2.53;1.63;;;;;;;-144.22;100.00;60274.75;6281303;28;20226;-44
2022/09/24 03:48:08;;;;;;;2.40;1.77;;;;;;;-144.22;100.00;60274.75;6280299;28;20223;-44
2022/09/24 03:51:17;;;;;;;1.53;1.43;;;;;;;-144.22;100.00;60274.75;6279651;28;20614;-44
2022/09/24 03:54:19;;;;;;;2.87;2.23;;;;;;;-144.22;100.00;60274.75;6280692;28;20729;-43
2022/09/24 03:57:21;;;;;;;1.43;1.33;;;;;;;-144.22;100.00;60274.75;6281964;28;20245;-44
2022/09/24 04:00:23;;;;;;;1.27;1.13;;;;;;;-144.22;100.00;60274.75;6256020;28;20234;-44
2022/09/24 04:03:25;;;;;;;3.13;1.80;;;;;;;-144.22;100.00;60274.75;6276989;28;20222;-44
2022/09/24 04:06:27;;;;;;;1.63;1.53;;;;;;;-144.22;100.00;60274.75;6279260;28;20253;-44
2022/09/24 04:09:29;;;;;;;1.93;1.73;;;;;;;-144.22;100.00;60274.75;6279740;28;20603;-43
2022/09/24 04:12:31;;;;;;;1.50;1.40;;;;;;;-144.22;100.00;60274.75;6280297;28;20226;-43
2022/09/24 04:15:33;;;;;;;1.70;1.60;;;;;;;-144.22;100.00;60274.75;6279845;28;20714;-44
2022/09/24 04:18:35;;;;;;;1.50;1.40;;;;;;;-144.22;100.00;60274.75;6280635;28;20731;-43
2022/09/24 04:21:40;;;;;;;1.67;1.57;;;;;;;-144.22;100.00;60274.75;6279742;28;20694;-44
2022/09/24 04:24:42;;;;;;;2.00;1.40;;;;;;;-144.22;100.00;60274.75;6280278;28;20588;-44
2022/09/24 04:27:44;;;;;;;1.90;1.50;;;;;;;-144.22;100.00;60274.75;6279382;28;20241;-44
2022/09/24 04:30:47;;;;;;;1.80;1.60;;;;;;;-144.22;100.00;60274.75;6280509;28;20234;-43
2022/09/24 04:33:49;;;;;;;1.70;1.60;;;;;;;-144.22;100.00;60274.75;6284100;28;20272;-45
2022/09/24 04:36:51;;;;;;;1.77;1.57;;;;;;;-144.22;100.00;60274.75;6280332;28;20222;-44
2022/09/24 04:39:53;;;;;;;1.60;1.50;;;;;;;-144.22;100.00;60274.75;6278925;28;20805;-43
2022/09/24 04:42:56;;;;;;;1.87;1.60;;;;;;;-144.22;100.00;60274.75;6283360;28;20226;-44
2022/09/24 04:45:58;;;;;;;1.77;1.57;;;;;;;-144.22;100.00;60274.75;6281067;28;20714;-45
2022/09/24 04:49:00;;;;;;;2.53;1.63;;;;;;;-144.22;100.00;60274.75;6279135;28;20233;-44
2022/09/24 04:52:03;;;;;;;1.60;1.30;;;;;;;-144.22;100.00;60274.75;6279781;28;20233;-43
2022/09/24 04:55:05;;;;;;;1.63;1.40;;;;;;;-144.22;100.00;60274.75;6278597;28;20242;-44
2022/09/24 04:58:08;;;;;;;1.77;1.67;;;;;;;-144.22;100.00;60274.75;6278548;28;20732;-45
2022/09/24 05:01:12;;;;;;;1.90;1.43;;;;;;;-144.22;100.00;60274.75;6278028;28;20226;-44
2022/09/24 05:04:14;;;;;;;1.67;1.57;;;;;;;-144.22;100.00;60274.75;6278301;28;20270;-45
2022/09/24 05:07:16;;;;;;;2.27;1.80;;;;;;;-144.22;100.00;60274.75;6278476;28;20308;-44
2022/09/24 05:10:18;;;;;;;1.60;1.50;;;;;;;-144.22;100.00;60274.75;6277350;28;20256;-45
2022/09/24 05:13:20;;;;;;;1.57;1.47;;;;;;;-144.22;100.00;60274.75;6278603;28;20312;-44
2022/09/24 05:16:22;;;;;;;1.97;1.60;;;;;;;-144.22;100.00;60274.75;6276739;28;20722;-44
2022/09/24 05:19:24;;;;;;;2.00;1.80;;;;;;;-144.22;100.00;60274.75;6279041;28;20234;-44
2022/09/24 05:22:26;;;;;;;1.37;1.27;;;;;;;-144.22;100.00;60274.75;6277426;28;20245;-49
2022/09/24 05:25:28;;;;;;;2.00;1.80;;;;;;;-144.22;100.00;60274.75;6279150;28;20724;-43
2022/09/24 05:28:34;;;;;;;3.03;1.90;;;;;;;-144.22;100.00;60274.75;6278621;28;20262;-46
2022/09/24 05:31:36;;;;;;;1.67;1.57;;;;;;;-144.22;100.00;60274.75;6277302;28;20235;-46
2022/09/24 05:34:40;;;;;;;1.67;1.53;;;;;;;-144.22;100.00;60274.75;6276889;28;20230;-43
2022/09/24 05:37:42;;;;;;;1.73;1.63;;;;;;;-144.22;100.00;60274.75;6277061;28;20642;-45
2022/09/24 05:40:47;;;;;;;2.27;1.70;;;;;;;-144.22;100.00;60274.75;6278963;28;20350;-45
2022/09/24 05:43:50;;;;;;;1.77;1.67;;;;;;;-144.22;100.00;60274.75;6277877;28;20251;-46
2022/09/24 05:46:52;;;;;;;1.93;1.70;;;;;;;-144.22;100.00;60274.75;6277676;28;20633;-45
2022/09/24 05:49:54;;;;;;;2.80;1.90;;;;;;;-144.22;100.00;60274.75;6278022;28;20652;-45
2022/09/24 05:52:56;;;;;;;1.57;1.47;;;;;;;-144.22;100.00;60274.75;6277337;28;20230;-48
2022/09/24 05:55:58;;;;;;;2.10;1.90;;;;;;;-144.22;100.00;60274.75;6278110;28;20238;-46
2022/09/24 05:59:00;;;;;;;1.90;1.70;;;;;;;-144.22;100.00;60274.75;6278074;28;20233;-44
2022/09/24 06:02:02;;;;;;;1.73;1.63;;;;;;;-144.22;100.00;60274.75;6277961;28;20234;-46
2022/09/24 06:05:05;;;;;;;1.53;1.43;;;;;;;-144.22;100.00;60274.75;6277093;28;20229;-44
2022/09/24 06:08:07;;;;;;;3.00;1.90;;;;;;;-144.22;100.00;60274.75;6278016;28;20237;-45
2022/09/24 06:11:09;;;;;;;3.13;1.60;;;;;;;-144.22;100.00;60274.75;6277285;28;20234;-43
2022/09/24 06:14:12;;;;;;;1.97;1.70;;;;;;;-144.22;100.00;60274.75;6277027;28;20239;-44
2022/09/24 06:17:14;;;;;;;2.00;1.80;;;;;;;-144.22;100.00;60274.75;6278591;28;20810;-44
2022/09/24 06:20:16;;;;;;;1.57;1.47;;;;;;;-144.22;100.00;60274.75;6278175;28;20233;-44
2022/09/24 06:23:18;;;;;;;2.53;1.70;;;;;;;-144.22;100.00;60274.75;6277856;28;20234;-44
2022/09/24 06:26:20;;;;;;;2.00;1.50;;;;;;;-144.22;100.00;60274.75;6277438;28;20226;-44
2022/09/24 06:29:22;;;;;;;1.70;1.40;;;;;;;-144.22;100.00;60274.75;6279864;28;20713;-44
2022/09/24 06:32:24;;;;;;;2.83;1.57;;;;;;;-144.22;100.00;60274.75;6281705;28;20241;-44
2022/09/24 06:35:26;;;;;;;1.67;1.50;;;;;;;-144.22;100.00;60274.75;6282281;28;20239;-44
2022/09/24 06:38:29;;;;;;;2.20;1.60;;;;;;;-144.22;100.00;60274.75;6280517;28;20746;-44
2022/09/24 06:41:31;;;;;;;2.43;1.90;;;;;;;-144.22;100.00;60274.75;6281658;28;20590;-43
2022/09/24 06:44:34;;;;;;;1.60;1.50;;;;;;;-144.22;100.00;60274.75;6280911;28;20227;-44
2022/09/24 06:47:38;;;;;;;2.43;1.90;;;;;;;-144.22;100.00;60274.75;6282173;28;20613;-44
2022/09/24 06:50:43;;;;;;;1.80;1.70;;;;;;;-144.22;100.00;60274.75;6280836;28;20721;-44
2022/09/24 06:53:45;;;;;;;2.00;1.60;;;;;;;-144.22;100.00;60274.75;6280515;28;20245;-44
2022/09/24 06:56:47;;;;;;;3.40;1.80;;;;;;;-144.22;100.00;60274.75;6281026;28;20248;-45
2022/09/24 06:59:50;;;;;;;2.27;1.73;;;;;;;-144.22;100.00;60274.75;6280775;28;20685;-43
2022/09/24 07:02:56;;;;;;;1.60;1.50;;;;;;;-144.22;100.00;60274.75;6256994;28;20247;-43
2022/09/24 07:06:03;;;;;;;1.53;1.30;;;;;;;-144.22;100.00;60274.75;6276716;28;20252;-42
2022/09/24 07:09:05;;;;;;;1.70;1.60;;;;;;;-144.22;100.00;60274.75;6280972;28;20229;-44
2022/09/24 07:12:07;;;;;;;2.13;1.70;;;;;;;-144.22;100.00;60274.75;6281103;28;20214;-43
2022/09/24 07:15:10;;;;;;;1.70;1.60;;;;;;;-144.22;100.00;60274.75;6279796;28;20234;-45
2022/09/24 07:18:12;;;;;;;2.10;1.90;;;;;;;-144.22;100.00;60274.75;6279714;28;20226;-44
2022/09/24 07:21:14;;;;;;;2.33;1.70;;;;;;;-144.22;100.00;60274.75;6279972;28;20234;-44
2022/09/24 07:24:16;;;;;;;2.13;1.93;;;;;;;-144.22;100.00;60274.75;6281049;28;20238;-43
2022/09/24 07:27:20;;;;;;;2.97;2.30;;;;;;;-144.22;100.00;60274.75;6278522;28;20221;-43
2022/09/24 07:30:22;;;;;;;2.27;1.87;;;;;;;-144.22;100.00;60274.75;6280041;28;20675;-45
2022/09/24 07:33:26;;;;;;;2.73;2.37;;;;;;;-144.22;100.00;60274.75;6279321;28;20226;-44
2022/09/24 07:36:30;;;;;;;2.67;2.40;;;;;;;-144.22;100.00;60274.75;6283922;28;20235;-43
2022/09/24 07:39:32;;;;;;;2.67;2.30;;;;;;;-144.22;100.00;60274.75;6280998;28;20587;-44
2022/09/24 07:42:34;;;;;;;3.43;2.53;;;;;;;-144.22;100.00;60274.75;6279577;28;20606;-43
2022/09/24 07:45:36;;;;;;;2.90;2.50;;;;;;;-144.22;100.00;60274.75;6279046;28;20247;-44
2022/09/24 07:48:38;;;;;;;3.07;2.57;;;;;;;-144.22;100.00;60274.75;6278899;28;20228;-44
2022/09/24 07:51:41;;;;;;;2.87;2.60;;;;;;;-144.22;100.00;60274.75;5394407;28;10000157;-44
2022/09/24 07:54:45;;;;;;;3.50;2.50;;;;;;;-144.22;100.00;60274.75;6224958;28;20234;-45
2022/09/24 07:57:50;;;;;;;2.87;2.20;;;;;;;-144.22;100.00;60274.75;6227615;28;20350;-45
2022/09/24 08:00:52;;;;;;;3.80;2.73;;;;;;;-144.22;100.00;60274.75;6224743;28;20222;-44
2022/09/24 08:03:54;;;;;;;3.17;2.40;;;;;;;-144.22;100.00;60274.75;6221573;28;20233;-45
2022/09/24 08:06:57;;;;;;;3.23;2.27;;;;;;;-144.22;100.00;60274.75;6230086;28;20614;-44
2022/09/24 08:10:00;;;;;;;3.27;2.73;;;;;;;-144.22;100.00;60274.75;6230291;28;20230;-44
2022/09/24 08:13:03;;;;;;;2.57;2.30;;;;;;;-144.22;100.00;60274.75;6230232;28;20270;-43
2022/09/24 08:16:05;;;;;;;3.13;2.20;;;;;;;-144.22;100.00;60274.75;6229832;28;20370;-44
2022/09/24 08:19:12;;;;;;;3.33;1.97;;;;;;;-144.22;100.00;60274.75;6230971;28;20373;-46
2022/09/24 08:22:14;;;;;;;2.63;2.40;;;;;;;-144.22;100.00;60274.75;6227783;28;20254;-44
2022/09/24 08:25:16;;;;;;;2.13;1.70;;;;;;;14.74;100.00;60274.75;6230690;28;20424;-44
2022/09/24 08:28:19;;;;;;;2.20;2.00;;;;;;;-144.22;100.00;60274.75;6229874;28;20239;-44
2022/09/24 08:31:21;;;;;;;2.73;2.23;;;;;;;188.01;100.00;60274.75;6230382;28;21809;-43
2022/09/24 08:34:23;;;;;;;3.50;2.57;;;;;;;188.01;100.00;60274.75;6230156;28;20296;-45
2022/09/24 08:37:28;;;;;;;3.07;2.50;;;;;;;16.55;100.00;60274.75;6229698;28;20413;-44
2022/09/24 08:40:55;;;;;;;3.00;2.70;;;;;;;-144.22;100.00;60274.75;6230447;28;20227;-44
2022/09/24 08:47:21;;;;;;;4.47;2.93;;;;;;;188.01;100.00;60274.75;6229603;28;20294;-45
2022/09/24 08:47:48;;;;;;;4.23;3.20;;;;;;;-144.22;100.00;60274.75;6229604;28;20728;-45
2022/09/24 08:50:56;;;;;;;4.27;2.77;;;;;;;16.55;100.00;60274.75;6228002;28;20246;-43
2022/09/24 08:54:03;;;;;;;4.07;2.77;;;;;;;16.55;100.00;60274.75;6229480;28;20232;-44
2022/09/24 08:57:19;;;;;;;3.90;3.03;;;;;;;15.77;100.00;60274.75;6251582;28;20753;-46
2022/09/24 09:00:21;;;;;;;2.47;2.20;;;;;;;-144.22;100.00;60274.75;6228104;28;24049;-44
2022/09/24 09:03:40;;;;;;;3.70;2.53;;;;;;;-144.22;100.00;60274.75;6229246;28;20241;-45
2022/09/24 09:06:45;;;;;;;3.93;2.70;;;;;;;-144.22;100.00;60274.75;6228303;28;20459;-44
2022/09/24 09:09:52;;;;;;;3.00;2.70;;;;;;;-144.22;100.00;60274.75;6225706;28;20650;-46
2022/09/24 09:13:08;;;;;;;4.17;2.53;;;;;;;16.79;100.00;60274.75;6220325;28;20235;-44
2022/09/24 09:16:24;;;;;;;3.37;3.00;;;;;;;-144.22;100.00;60274.75;6228925;28;20330;-42
2022/09/24 09:19:32;;;;;;;6.50;3.53;;;;;;;-144.22;100.00;60274.75;6230677;28;20228;-41
2022/09/24 09:22:41;;;;;;;5.03;2.50;;;;;;;-144.22;100.00;60274.75;6229303;28;20309;-44
2022/09/24 09:25:51;;;;;;;4.77;4.20;;;;;;;-144.22;100.00;60274.75;6211939;28;20228;-44
2022/09/24 09:29:00;;;;;;;4.60;3.87;;;;;;;-144.22;100.00;60274.75;6222157;28;20254;-44
2022/09/24 09:32:47;;;;;;;5.40;3.23;;;;;;;16.97;100.00;60274.75;6223832;28;20240;-45
2022/09/24 09:36:01;;;;;;;3.83;3.43;;;;;;;-144.22;100.00;60274.75;6220083;28;20247;-44
2022/09/24 09:39:19;;;;;;;3.47;3.13;;;;;;;-144.22;100.00;60274.75;6228776;28;20723;-44
2022/09/24 09:42:35;;;;;;;5.00;3.30;;;;;;;19.15;100.00;60274.75;6226043;28;20235;-45
2022/09/24 09:45:50;;;;;;;3.90;2.53;;;;;;;188.01;100.00;60274.75;6228459;28;20314;-43
2022/09/24 09:48:58;;;;;;;5.53;4.33;;;;;;;-144.22;100.00;60274.75;6229028;28;20224;-43
2022/09/24 09:52:10;;;;;;;4.87;3.90;;;;;;;188.01;100.00;60274.75;6228904;28;20236;-43
2022/09/24 09:55:35;;;;;;;4.97;4.00;;;;;;;-144.22;100.00;60274.75;6228934;28;20579;-43
2022/09/24 09:58:43;;;;;;;4.00;3.57;;;;;;;-144.22;100.00;60274.75;6229220;28;21049;-44
2022/09/24 10:01:48;;;;;;;4.07;2.87;;;;;;;-144.22;100.00;60274.75;6231309;28;20232;-44
2022/09/24 10:04:56;;;;;;;4.00;3.60;;;;;;;18.94;100.00;60274.75;6238345;28;20262;-43
2022/09/24 10:07:58;;;;;;;7.40;3.53;;;;;;;-144.22;100.00;60274.75;6233234;28;20247;-43
2022/09/24 10:11:02;;;;;;;4.63;4.00;;;;;;;-144.22;100.00;60274.75;6233299;28;20235;-44
2022/09/24 10:14:08;;;;;;;4.40;4.00;;;;;;;-144.22;100.00;60274.75;6233047;28;20228;-44
2022/09/24 10:17:14;;;;;;;4.17;3.70;;;;;;;-144.22;100.00;60274.75;6233682;28;20239;-45
2022/09/24 10:20:21;;;;;;;4.87;3.60;;;;;;;-144.22;100.00;60274.75;6232893;28;20650;-44
2022/09/24 10:23:35;;;;;;;5.60;3.80;;;;;;;-144.22;100.00;60274.75;6233080;28;20238;-43
2022/09/24 10:26:40;;;;;;;4.37;3.97;;;;;;;-144.22;100.00;60274.75;6253637;28;20227;-45
2022/09/24 10:33:07;;;;;;;6.67;3.50;;;;;;;-144.22;100.00;60274.75;6249775;28;20223;-45
2022/09/24 10:36:29;;;;;;;4.23;3.53;;;;;;;-144.22;100.00;60274.75;6271390;28;20245;-44
2022/09/24 10:39:32;;;;;;;7.47;4.20;;;;;;;-144.22;100.00;60274.75;6257178;28;20234;-44
2022/09/24 10:42:36;;;;;;;7.80;4.10;;;;;;;-144.22;100.00;60274.75;6256960;28;20632;-44
2022/09/24 10:45:55;;;;;;;6.03;4.00;;;;;;;-144.22;100.00;60274.75;6255106;28;20266;-45
2022/09/24 10:49:19;;;;;;;4.50;4.10;;;;;;;16.68;100.00;60274.75;6255915;28;20240;-43
2022/09/24 10:52:42;;;;;;;3.73;3.33;;;;;;;-144.22;100.00;60274.75;6244290;28;20318;-46
2022/09/24 10:56:02;;;;;;;3.23;2.93;;;;;;;-144.22;100.00;60274.75;6256861;28;20231;-43
2022/09/24 10:59:23;;;;;;;4.70;4.20;;;;;;;-144.22;100.00;60274.75;6257433;28;20686;-45
2022/09/24 11:02:56;;;;;;;5.57;3.70;;;;;;;-144.22;100.00;60274.75;6257155;28;20322;-43
2022/09/24 11:06:17;;;;;;;4.23;3.83;;;;;;;-144.22;100.00;60274.75;6245578;28;20239;-45
2022/09/24 11:09:31;;;;;;;4.80;3.87;;;;;;;-144.22;100.00;60274.75;6239795;28;20262;-44
2022/09/24 11:12:47;;;;;;;7.90;3.97;;;;;;;-144.22;100.00;60274.75;6255357;28;20325;-43
2022/09/24 11:15:52;;;;;;;5.07;3.47;;;;;;;-144.22;100.00;60274.75;6255596;28;20231;-44
2022/09/24 11:19:13;;;;;;;3.80;3.27;;;;;;;-144.22;100.00;60274.75;6256120;28;20314;-46
2022/09/24 11:22:24;;;;;;;4.10;3.77;;;;;;;-144.22;100.00;60274.75;6234668;28;20238;-45
2022/09/24 11:25:38;;;;;;;3.23;2.90;;;;;;;-144.22;100.00;60274.75;6255046;28;20318;-46
2022/09/24 11:29:09;;;;;;;4.60;3.00;;;;;;;-144.22;100.00;60274.75;6256591;28;20764;-44
2022/09/24 11:32:24;;;;;;;3.17;2.80;;;;;;;-144.22;100.00;60274.75;6255508;28;20602;-47
2022/09/24 11:35:47;;;;;;;4.93;3.33;;;;;;;-144.22;100.00;60274.75;6256744;28;20231;-46
2022/09/24 11:39:00;;;;;;;4.63;3.20;;;;;;;-144.22;100.00;60274.75;6255338;28;20231;-44
2022/09/24 11:42:15;;;;;;;3.93;3.63;;;;;;;-144.22;100.00;60274.75;6254271;28;20228;-45
2022/09/24 11:45:48;;;;;;;4.73;3.23;;;;;;;20.44;100.00;60274.75;6275946;28;20574;-44
2022/09/24 11:49:09;;;;;;;4.27;3.73;;;;;;;-144.22;100.00;60274.75;6256177;28;20234;-44
2022/09/24 11:52:21;;;;;;;4.63;3.60;;;;;;;-144.22;100.00;60274.75;6254184;28;20594;-49
2022/09/24 11:55:36;;;;;;;5.00;4.10;;;;;;;-144.22;100.00;60274.75;6254717;28;20235;-44
2022/09/24 11:58:57;;;;;;;4.67;3.83;;;;;;;20.44;100.00;60274.75;6255380;28;20239;-44
2022/09/24 12:02:06;;;;;;;4.83;4.13;;;;;;;-144.22;100.00;60274.75;6269528;28;20231;-44
2022/09/24 12:05:18;;;;;;;4.87;4.13;;;;;;;-144.22;100.00;60274.75;6255152;28;20247;-46
2022/09/24 12:08:27;;;;;;;5.47;3.47;;;;;;;-144.22;100.00;60274.75;6254140;28;20227;-45
2022/09/24 12:11:40;;;;;;;5.20;4.10;;;;;;;-144.22;100.00;60274.75;6247126;28;20266;-45
2022/09/24 12:15:11;;;;;;;5.47;3.60;;;;;;;20.24;100.00;60274.75;6239893;28;20241;-46
2022/09/24 12:18:22;;;;;;;5.13;3.90;;;;;;;-144.22;100.00;60274.75;6253970;28;20253;-45
2022/09/24 12:21:41;;;;;;;5.07;3.47;;;;;;;-144.22;100.00;60274.75;6254667;28;21027;-44
2022/09/24 12:24:58;;;;;;;3.90;3.50;;;;;;;20.67;100.00;60274.75;6253246;28;20231;-45
2022/09/24 12:28:00;;;;;;;7.67;3.40;;;;;;;-144.22;100.00;60274.75;6259848;28;20304;-45
2022/09/24 12:34:49;;;;;;;4.50;4.03;;;;;;;-144.22;100.00;60274.75;6254971;28;20211;-44
2022/09/24 12:37:59;;;;;;;4.33;3.93;;;;;;;-144.22;100.00;60274.75;6253264;28;20239;-45
2022/09/24 12:41:24;;;;;;;3.73;3.43;;;;;;;-144.22;100.00;60274.75;6253133;28;20254;-45
2022/09/24 12:44:40;;;;;;;3.00;2.80;;;;;;;-144.22;100.00;60274.75;6253191;28;20238;-45
2022/09/24 12:47:52;;;;;;;3.47;3.17;;;;;;;-144.22;100.00;60274.75;6253259;28;20232;-42
2022/09/24 12:50:58;;;;;;;3.87;3.47;;;;;;;-144.22;100.00;60274.75;6251483;28;20235;-43
2022/09/24 12:54:07;;;;;;;5.30;3.93;;;;;;;-144.22;100.00;60274.75;6253044;28;20664;-44
2022/09/24 12:57:09;;;;;;;4.63;4.23;;;;;;;20.74;100.00;60274.75;6253284;28;20262;-45
2022/09/24 13:00:35;;;;;;;6.27;4.57;;;;;;;-144.22;100.00;60274.75;6254375;28;20215;-45
2022/09/24 13:03:39;;;;;;;4.23;3.83;;;;;;;-144.22;100.00;60274.75;6252224;28;20232;-43
2022/09/24 13:06:48;;;;;;;5.30;4.23;;;;;;;-144.22;100.00;60274.75;6253812;28;20231;-43
2022/09/24 13:09:50;;;;;;;3.57;3.27;;;;;;;19.76;100.00;60274.75;6252837;28;20729;-44
2022/09/24 13:12:53;;;;;;;3.83;3.33;;;;;;;-144.22;100.00;60274.75;6253527;28;20235;-44
2022/09/24 13:16:02;;;;;;;4.30;3.73;;;;;;;-144.22;100.00;60274.75;6251950;28;20377;-42
2022/09/24 13:19:29;;;;;;;3.50;3.20;;;;;;;-144.22;100.00;60274.75;6253059;28;20310;-44
2022/09/24 13:22:34;;;;;;;4.03;3.63;;;;;;;-144.22;100.00;60274.75;6228299;28;20236;-43
2022/09/24 13:25:37;;;;;;;3.50;3.00;;;;;;;-144.22;100.00;60274.75;6251197;28;20242;-42
2022/09/24 13:28:54;;;;;;;4.33;3.10;;;;;;;19.86;100.00;60274.75;6253747;28;20230;-42
2022/09/24 13:32:02;;;;;;;4.23;3.83;;;;;;;-144.22;100.00;60274.75;6253802;28;20589;-43
2022/09/24 13:35:13;;;;;;;3.93;3.53;;;;;;;-144.22;100.00;60274.75;6252222;28;20242;-42
2022/09/24 13:38:30;;;;;;;5.20;3.57;;;;;;;20.09;100.00;60274.75;6253055;28;20232;-43
2022/09/24 13:42:00;;;;;;;4.17;3.10;;;;;;;-144.22;100.00;60274.75;6267768;28;20239;-43
2022/09/24 13:45:06;;;;;;;3.87;2.77;;;;;;;-144.22;100.00;60274.75;6252399;28;20234;-42
2022/09/24 13:48:33;;;;;;;4.40;3.03;;;;;;;-144.22;100.00;60274.75;6251329;28;20295;-43
2022/09/24 13:51:38;;;;;;;3.20;2.90;;;;;;;-144.22;100.00;60274.75;6268600;28;20704;-42
2022/09/24 13:54:50;;;;;;;3.00;2.80;;;;;;;-144.22;100.00;60274.75;6252158;28;20227;-44
2022/09/24 13:57:53;;;;;;;3.80;2.60;;;;;;;-144.22;100.00;60274.75;6252067;28;20737;-43
2022/09/24 14:00:58;;;;;;;5.93;2.77;;;;;;;-144.22;100.00;60274.75;6251612;28;20219;-42
2022/09/24 14:04:23;;;;;;;3.30;2.77;;;;;;;-144.22;100.00;60274.75;6250752;28;20242;-43
2022/09/24 14:07:27;;;;;;;4.20;2.53;;;;;;;19.15;100.00;60274.75;6253654;28;20233;-45
2022/09/24 14:10:30;;;;;;;2.47;2.13;;;;;;;-144.22;100.00;60274.75;6252419;28;20234;-43
2022/09/24 14:13:37;;;;;;;3.97;2.50;;;;;;;-144.22;100.00;60274.75;6252603;28;20242;-43
2022/09/24 14:16:39;;;;;;;4.63;2.40;;;;;;;-144.22;100.00;60274.75;6252728;28;20247;-44
2022/09/24 14:19:42;;;;;;;2.57;2.10;;;;;;;-144.22;100.00;60274.75;6252964;28;20239;-45
2022/09/24 14:22:45;;;;;;;2.70;2.27;;;;;;;-144.22;100.00;60274.75;6251579;28;20612;-44
2022/09/24 14:25:49;;;;;;;4.23;2.40;;;;;;;-144.22;100.00;60274.75;6252623;28;20242;-43